Weather at San Francisco International Airport

Public forecast

Using degrees Fahrenheit for public forecast. Weather courtesy of forecast.io.

Current aviation weather report (METAR) for San Francisco International Airport

Retrieved 2022/05/23 07:56 UTC (59 minutes ago):

KSFO 230756Z 30014KT 10SM CLR 12/07 A3001 RMK AO2 SLP161 T01170072 402000106

Aviation forecast (TAF) for San Francisco International Airport

Retrieved 2022/05/23 06:24 UTC (3 hours ago):

TAF KSFO 230521Z 2306/2412 28016KT P6SM FEW200 FM230900 27009KT P6SM FEW009 FM231800 27014G21KT P6SM FEW010 FM232100 28018G26KT P6SM SKC FM232300 29020G30KT P6SM SKC FM240400 28015G22KT P6SM FEW250 FM240700 29012KT P6SM FEW250